Time;durP1;ratioP1;P1;durP2;ratioP2;P2;SDS_P1;SDS_P2;PMS_P1;PMS_P2;Temp;Humidity;BMP_temperature;BMP_pressure;BME280_temperature;BME280_humidity;BME280_pressure;Samples;Min_cycle;Max_cycle;Signal;HPM_P1;HPM_P2
2023/12/09 00:01:19;;;;;;;273.85;42.63;;;3.20;99.90;;;;;;5048287;28;20029;-54
2023/12/09 00:03:45;;;;;;;165.35;38.40;;;;;;;;;;5034818;28;20029;-52
2023/12/09 00:06:10;;;;;;;191.15;41.50;;;3.10;99.90;;;;;;5034603;28;20112;-51
2023/12/09 00:08:37;;;;;;;276.70;45.67;;;2.80;99.90;;;;;;5034526;28;20108;-52
2023/12/09 00:11:03;;;;;;;302.70;46.40;;;2.90;99.90;;;;;;5034684;28;20534;-52
2023/12/09 00:13:31;;;;;;;248.65;44.20;;;2.70;99.90;;;;;;4999544;28;20065;-56
2023/12/09 00:15:56;;;;;;;311.27;47.40;;;2.70;99.90;;;;;;5016682;28;20488;-56
2023/12/09 00:18:22;;;;;;;245.05;42.92;;;;;;;;;;5031861;28;20025;-51
2023/12/09 00:20:48;;;;;;;226.30;41.25;;;2.80;99.90;;;;;;5034141;28;20030;-54
2023/12/09 00:23:14;;;;;;;298.27;49.40;;;2.50;99.90;;;;;;5034377;28;20414;-51
2023/12/09 00:25:39;;;;;;;269.13;43.85;;;2.50;99.90;;;;;;4999203;28;20040;-52
2023/12/09 00:28:05;;;;;;;308.92;42.00;;;2.40;99.90;;;;;;5015531;28;20401;-56
2023/12/09 00:30:31;;;;;;;286.45;41.60;;;2.50;99.90;;;;;;5034048;28;20030;-51
2023/12/09 00:32:57;;;;;;;280.05;43.78;;;2.20;99.90;;;;;;5033882;28;20057;-53
2023/12/09 00:35:23;;;;;;;285.80;38.95;;;1.90;99.90;;;;;;5015587;28;20042;-53
2023/12/09 00:37:50;;;;;;;258.02;45.53;;;1.80;99.90;;;;;;5034145;28;20075;-52
2023/12/09 00:40:17;;;;;;;252.00;45.05;;;2.00;99.90;;;;;;5034268;28;20393;-51
2023/12/09 00:42:42;;;;;;;278.95;42.00;;;2.20;99.90;;;;;;5033841;28;20029;-56
2023/12/09 00:45:09;;;;;;;208.35;41.58;;;2.40;99.90;;;;;;5033966;28;20032;-53
2023/12/09 00:47:34;;;;;;;215.13;38.30;;;2.40;99.90;;;;;;5033748;28;20036;-54
2023/12/09 00:50:01;;;;;;;216.15;36.47;;;2.30;99.90;;;;;;5033856;28;20029;-56
2023/12/09 00:52:26;;;;;;;320.65;45.13;;;2.30;99.90;;;;;;5034125;28;20035;-55
2023/12/09 00:54:52;;;;;;;165.05;40.30;;;2.40;99.90;;;;;;4998383;28;20037;-53
2023/12/09 00:57:19;;;;;;;192.27;39.25;;;2.40;99.90;;;;;;5033862;28;20053;-53
2023/12/09 00:59:44;;;;;;;180.43;34.67;;;2.50;99.90;;;;;;5033536;28;20396;-52
2023/12/09 01:02:10;;;;;;;192.27;36.70;;;2.40;99.90;;;;;;5033790;28;20029;-54
2023/12/09 01:04:36;;;;;;;216.30;38.45;;;2.40;99.90;;;;;;5033869;28;20025;-56
2023/12/09 01:07:01;;;;;;;132.13;38.08;;;2.30;99.90;;;;;;5033491;28;20032;-53
2023/12/09 01:09:27;;;;;;;164.73;35.97;;;2.50;99.90;;;;;;5033652;28;20037;-52
2023/12/09 01:11:53;;;;;;;140.23;35.35;;;2.50;99.90;;;;;;5033263;28;20061;-51
2023/12/09 01:14:18;;;;;;;179.05;37.92;;;2.50;99.90;;;;;;5033415;28;20025;-52
2023/12/09 01:16:44;;;;;;;177.82;36.67;;;2.70;99.90;;;;;;5033727;28;20029;-53
2023/12/09 01:19:10;;;;;;;206.07;37.63;;;2.50;99.90;;;;;;5014713;28;20029;-55
2023/12/09 01:21:36;;;;;;;197.05;34.15;;;2.50;99.90;;;;;;5033346;28;20520;-50
2023/12/09 01:24:04;;;;;;;158.43;37.60;;;2.50;99.90;;;;;;5033122;28;20026;-55
2023/12/09 01:26:30;;;;;;;189.52;31.02;;;2.50;99.90;;;;;;5033026;28;20687;-53
2023/12/09 01:28:57;;;;;;;215.52;37.10;;;2.10;99.90;;;;;;5032999;28;20133;-52
2023/12/09 01:31:23;;;;;;;173.75;35.47;;;2.20;99.90;;;;;;5032687;28;20504;-55
2023/12/09 01:33:48;;;;;;;295.98;40.03;;;2.00;99.90;;;;;;5032876;28;20029;-54
2023/12/09 01:36:14;;;;;;;253.93;37.85;;;2.10;99.90;;;;;;5033111;28;20032;-50
2023/12/09 01:38:40;;;;;;;213.80;34.28;;;2.00;99.90;;;;;;5014216;28;20037;-53
2023/12/09 01:41:05;;;;;;;229.90;34.47;;;2.10;99.90;;;;;;5032992;28;20512;-50
2023/12/09 01:43:31;;;;;;;100.80;21.98;;;1.90;99.90;;;;;;5033265;28;20048;-55
2023/12/09 01:46:05;;;;;;;233.18;34.75;;;1.70;99.90;;;;;;5032972;28;20083;-55
2023/12/09 01:48:32;;;;;;;179.05;32.70;;;1.50;99.90;;;;;;5032750;28;20036;-51
2023/12/09 01:50:58;;;;;;;144.35;34.72;;;1.50;99.90;;;;;;4997389;28;20033;-51
2023/12/09 01:53:24;;;;;;;137.77;26.60;;;1.80;99.90;;;;;;5032476;28;20393;-53
2023/12/09 01:55:50;;;;;;;207.68;38.95;;;1.50;99.90;;;;;;5032711;28;20017;-52
2023/12/09 01:58:17;;;;;;;141.57;29.33;;;1.60;99.90;;;;;;5032179;28;20095;-50
2023/12/09 02:00:43;;;;;;;108.13;27.17;;;1.50;99.90;;;;;;5032284;28;20053;-52
2023/12/09 02:03:09;;;;;;;122.95;28.90;;;1.40;99.90;;;;;;5032310;28;20481;-54
2023/12/09 02:05:35;;;;;;;110.90;26.55;;;1.20;99.90;;;;;;5032347;28;20029;-54
2023/12/09 02:08:00;;;;;;;167.38;33.22;;;1.10;99.90;;;;;;5032431;28;20064;-51
2023/12/09 02:10:27;;;;;;;186.95;35.08;;;1.30;99.90;;;;;;5013869;28;20030;-53
2023/12/09 02:13:06;;;;;;;101.63;33.58;;;1.10;99.90;;;;;;5032185;28;20033;-50
2023/12/09 02:15:47;;;;;;;116.20;32.65;;;1.40;99.90;;;;;;5032381;28;20031;-56
2023/12/09 02:18:12;;;;;;;84.22;29.00;;;1.50;99.90;;;;;;5032355;28;20033;-53
2023/12/09 02:20:38;;;;;;;126.20;31.67;;;1.80;99.90;;;;;;5032457;28;20030;-52
2023/12/09 02:23:14;;;;;;;217.63;38.13;;;1.70;99.90;;;;;;5031985;28;20390;-54
2023/12/09 02:25:40;;;;;;;135.32;33.30;;;1.80;99.90;;;;;;4997014;28;20034;-55
2023/12/09 02:28:09;;;;;;;134.13;33.83;;;1.70;99.90;;;;;;5032438;28;20524;-52
2023/12/09 02:30:53;;;;;;;203.82;38.10;;;2.00;99.90;;;;;;5032349;28;20029;-53
2023/12/09 02:33:21;;;;;;;139.07;30.08;;;2.40;99.90;;;;;;5012296;28;20490;-52
2023/12/09 02:35:49;;;;;;;129.02;34.25;;;2.00;99.90;;;;;;5012208;28;20026;-50
2023/12/09 02:38:17;;;;;;;109.95;32.75;;;1.90;99.90;;;;;;5024875;28;20387;-55
2023/12/09 02:40:43;;;;;;;108.43;33.05;;;2.00;99.90;;;;;;5032084;28;20065;-54
2023/12/09 02:43:10;;;;;;;92.57;31.85;;;2.10;99.90;;;;;;5032001;28;20153;-53
2023/12/09 02:45:36;;;;;;;114.68;33.80;;;2.30;99.90;;;;;;5031803;28;20029;-50
2023/12/09 02:48:03;;;;;;;109.40;33.53;;;2.50;99.90;;;;;;5031928;28;20026;-52
2023/12/09 02:50:29;;;;;;;157.10;34.55;;;2.80;99.90;;;;;;5032002;28;20106;-50
2023/12/09 02:52:55;;;;;;;181.75;35.30;;;3.10;99.90;;;;;;5012747;28;20410;-56
2023/12/09 02:55:21;;;;;;;163.43;34.40;;;2.90;99.90;;;;;;5031841;28;20029;-55
2023/12/09 02:57:47;;;;;;;90.03;34.13;;;2.70;99.90;;;;;;5031849;28;20075;-52
2023/12/09 03:00:13;;;;;;;73.60;31.95;;;2.60;99.90;;;;;;5032059;28;20025;-55
2023/12/09 03:02:39;;;;;;;139.15;33.03;;;2.70;99.90;;;;;;5031223;28;20022;-51
2023/12/09 03:05:05;;;;;;;129.70;34.53;;;2.60;99.90;;;;;;5031792;28;20082;-52
2023/12/09 03:07:30;;;;;;;179.25;36.35;;;2.80;99.90;;;;;;5031564;28;20024;-54
2023/12/09 03:09:56;;;;;;;199.23;38.85;;;3.00;99.90;;;;;;5033362;28;20030;-52
2023/12/09 03:12:22;;;;;;;104.03;33.08;;;;;;;;;;5035555;28;20043;-52
2023/12/09 03:14:48;;;;;;;224.25;36.70;;;3.30;99.90;;;;;;5035788;28;20389;-53
2023/12/09 03:17:13;;;;;;;101.65;32.15;;;3.30;99.90;;;;;;5035640;28;20029;-54
2023/12/09 03:19:39;;;;;;;109.95;33.30;;;3.50;99.90;;;;;;5035540;28;20456;-53
2023/12/09 03:22:05;;;;;;;178.45;35.85;;;3.50;99.90;;;;;;5035436;28;20044;-53
2023/12/09 03:24:31;;;;;;;136.27;32.47;;;3.60;99.90;;;;;;5035448;28;20121;-51
2023/12/09 03:26:57;;;;;;;66.50;31.58;;;3.20;99.90;;;;;;5035270;28;20104;-51
2023/12/09 03:29:22;;;;;;;151.68;32.80;;;3.20;99.90;;;;;;5035703;28;20029;-49
2023/12/09 03:31:48;;;;;;;102.97;30.05;;;3.00;99.90;;;;;;5016075;28;20045;-52
2023/12/09 03:34:15;;;;;;;237.27;38.80;;;3.20;99.90;;;;;;5035235;28;20477;-52
2023/12/09 03:36:41;;;;;;;279.65;43.58;;;3.40;99.90;;;;;;5035434;28;20096;-55
2023/12/09 03:39:07;;;;;;;243.18;42.35;;;3.50;99.90;;;;;;5034984;28;20021;-51
2023/12/09 03:41:33;;;;;;;231.75;39.17;;;3.60;99.90;;;;;;5035110;28;20021;-53
2023/12/09 03:43:59;;;;;;;129.57;30.17;;;3.70;99.90;;;;;;5035004;28;20061;-54
2023/12/09 03:46:25;;;;;;;207.88;41.25;;;3.70;99.90;;;;;;5035251;28;20107;-50
2023/12/09 03:48:51;;;;;;;210.13;38.00;;;3.80;99.90;;;;;;5034904;28;20037;-52
2023/12/09 03:51:17;;;;;;;127.38;32.90;;;3.80;99.90;;;;;;5035088;28;20031;-50
2023/12/09 03:53:43;;;;;;;117.63;30.45;;;3.80;99.90;;;;;;5016160;28;20044;-50
2023/12/09 03:56:13;;;;;;;75.78;29.75;;;3.30;99.90;;;;;;5034835;28;20140;-53
2023/12/09 03:58:38;;;;;;;125.72;32.72;;;3.00;99.90;;;;;;5015962;28;20041;-51
2023/12/09 04:01:04;;;;;;;223.85;41.67;;;3.10;99.90;;;;;;5034075;28;20087;-53
2023/12/09 04:03:30;;;;;;;262.35;35.42;;;3.30;99.90;;;;;;4999601;28;20577;-52
2023/12/09 04:05:56;;;;;;;166.50;31.48;;;3.40;99.90;;;;;;4999594;28;20057;-53
2023/12/09 04:08:22;;;;;;;101.07;31.08;;;3.20;99.90;;;;;;5034589;28;20367;-54
2023/12/09 04:10:48;;;;;;;334.85;42.58;;;3.10;99.90;;;;;;5034454;28;20469;-54
2023/12/09 04:13:14;;;;;;;108.07;32.80;;;3.10;99.90;;;;;;5034421;28;20041;-53
2023/12/09 04:15:40;;;;;;;234.93;36.95;;;3.10;99.90;;;;;;4992428;28;20130;-57
2023/12/09 04:18:06;;;;;;;216.20;34.83;;;3.30;99.90;;;;;;4960055;28;20041;-51
2023/12/09 04:20:32;;;;;;;244.18;33.60;;;3.40;99.90;;;;;;4992256;28;20558;-51
2023/12/09 04:22:58;;;;;;;266.65;36.33;;;3.40;99.90;;;;;;4992402;28;20038;-50
2023/12/09 04:25:25;;;;;;;170.25;32.30;;;3.60;99.90;;;;;;4960046;28;20038;-57
2023/12/09 04:27:54;;;;;;;242.93;33.90;;;3.50;99.90;;;;;;4992302;28;20114;-54
2023/12/09 04:30:22;;;;;;;134.35;31.38;;;3.50;99.90;;;;;;4992355;28;20541;-51
2023/12/09 04:32:48;;;;;;;145.02;31.63;;;3.60;99.90;;;;;;4991117;28;20212;-56
2023/12/09 04:35:14;;;;;;;123.10;31.20;;;3.50;99.90;;;;;;4972812;28;20039;-51
2023/12/09 04:37:40;;;;;;;80.03;33.00;;;3.40;99.90;;;;;;4972884;28;20049;-53
2023/12/09 04:40:11;;;;;;;161.45;36.25;;;3.40;99.90;;;;;;4924356;28;20411;-53
2023/12/09 04:42:38;;;;;;;205.85;33.78;;;3.40;99.90;;;;;;4956655;28;20427;-55
2023/12/09 04:45:27;;;;;;;170.30;34.22;;;3.40;99.90;;;;;;4972731;28;20499;-54
2023/12/09 04:47:53;;;;;;;206.95;35.40;;;3.40;99.90;;;;;;4953034;29;20118;-54
2023/12/09 04:50:21;;;;;;;184.43;36.53;;;3.50;99.90;;;;;;4953515;29;20046;-54
2023/12/09 04:52:46;;;;;;;164.10;34.17;;;3.40;99.90;;;;;;4921475;29;20039;-53
2023/12/09 04:55:13;;;;;;;233.43;39.10;;;3.30;99.90;;;;;;4953225;29;20438;-49
2023/12/09 04:57:38;;;;;;;205.68;36.38;;;3.00;99.90;;;;;;4953283;29;20042;-55
2023/12/09 05:00:05;;;;;;;147.90;35.13;;;3.00;99.90;;;;;;4952961;29;20407;-54
2023/12/09 05:02:31;;;;;;;195.07;36.00;;;3.00;99.90;;;;;;4936560;29;20039;-52
2023/12/09 05:04:57;;;;;;;274.15;38.83;;;3.20;99.90;;;;;;4953029;29;20031;-52
2023/12/09 05:07:26;;;;;;;256.35;41.30;;;3.20;99.90;;;;;;4991222;28;20034;-55
2023/12/09 05:09:52;;;;;;;172.98;39.72;;;3.20;99.90;;;;;;4991856;28;20487;-51
2023/12/09 05:12:18;;;;;;;301.65;43.17;;;3.30;99.90;;;;;;4991391;28;20180;-53
2023/12/09 05:14:44;;;;;;;183.70;39.25;;;3.30;99.90;;;;;;4991690;28;20157;-51
2023/12/09 05:17:11;;;;;;;267.55;43.42;;;3.40;99.90;;;;;;4991434;28;20038;-53
2023/12/09 05:19:37;;;;;;;149.00;46.65;;;3.40;99.90;;;;;;4991557;28;20035;-52
2023/12/09 05:22:02;;;;;;;197.35;47.35;;;3.40;99.90;;;;;;4991574;28;20053;-54
2023/12/09 05:24:28;;;;;;;184.15;40.70;;;3.50;99.90;;;;;;4975048;28;20038;-55
2023/12/09 05:26:55;;;;;;;214.80;43.08;;;3.30;99.90;;;;;;4991423;28;20022;-51
2023/12/09 05:29:21;;;;;;;208.48;39.83;;;3.30;99.90;;;;;;4991281;28;20054;-55
2023/12/09 05:31:46;;;;;;;192.80;39.85;;;3.40;99.90;;;;;;4990111;28;20551;-54
2023/12/09 05:34:12;;;;;;;137.20;37.53;;;3.50;99.90;;;;;;4990375;28;20038;-55
2023/12/09 05:36:38;;;;;;;133.00;37.53;;;3.40;99.90;;;;;;4990329;28;20518;-52
2023/12/09 05:39:05;;;;;;;331.42;45.95;;;3.60;99.90;;;;;;5006657;28;20038;-52
2023/12/09 05:41:31;;;;;;;183.13;41.28;;;3.70;99.90;;;;;;4990357;28;20029;-57
2023/12/09 05:43:57;;;;;;;171.95;35.15;;;3.80;99.90;;;;;;4999069;28;20477;-52
2023/12/09 05:46:22;;;;;;;184.43;39.53;;;3.20;99.90;;;;;;5032019;28;20033;-54
2023/12/09 05:48:49;;;;;;;209.98;42.10;;;3.40;99.90;;;;;;5031862;28;20025;-54
2023/12/09 05:51:15;;;;;;;277.02;43.92;;;3.40;99.90;;;;;;5032183;28;20097;-50
2023/12/09 05:53:41;;;;;;;269.17;42.13;;;3.60;99.90;;;;;;4997272;28;20124;-51
2023/12/09 05:56:13;;;;;;;290.52;40.50;;;3.70;99.90;;;;;;5033623;28;20064;-53
2023/12/09 05:58:40;;;;;;;266.95;35.13;;;3.80;99.90;;;;;;5032507;28;20029;-54
2023/12/09 06:01:07;;;;;;;188.57;30.40;;;3.90;99.90;;;;;;5030146;28;20080;-54
2023/12/09 06:03:32;;;;;;;134.85;28.05;;;4.00;99.90;;;;;;4985209;28;20034;-52
2023/12/09 06:05:58;;;;;;;169.57;32.15;;;4.00;99.90;;;;;;5023389;28;20604;-50
2023/12/09 06:08:24;;;;;;;182.35;32.03;;;4.00;99.90;;;;;;5032531;28;20026;-53
2023/12/09 06:10:51;;;;;;;213.75;36.60;;;3.90;99.90;;;;;;5025976;28;20034;-50
2023/12/09 06:13:16;;;;;;;105.80;25.40;;;3.90;99.90;;;;;;4996935;28;20034;-52
2023/12/09 06:15:42;;;;;;;247.80;33.80;;;3.90;99.90;;;;;;5031997;28;20036;-49
2023/12/09 06:18:08;;;;;;;177.23;28.70;;;3.90;99.90;;;;;;5031449;28;20524;-50
2023/12/09 06:20:34;;;;;;;212.00;31.42;;;3.90;99.90;;;;;;5029425;28;20080;-52
2023/12/09 06:23:00;;;;;;;265.13;37.28;;;3.80;99.90;;;;;;5025150;28;20385;-53
2023/12/09 06:25:25;;;;;;;208.48;30.52;;;3.90;99.90;;;;;;5031523;28;20032;-54
2023/12/09 06:27:51;;;;;;;201.32;33.50;;;4.00;99.90;;;;;;5031283;28;20034;-52
2023/12/09 06:30:17;;;;;;;121.10;28.40;;;4.10;99.90;;;;;;5031237;28;20095;-53
2023/12/09 06:32:43;;;;;;;181.43;31.08;;;4.10;99.90;;;;;;5005797;28;1179034;-50
2023/12/09 06:35:09;;;;;;;79.50;26.65;;;4.10;99.90;;;;;;5016936;28;20132;-49
2023/12/09 06:37:35;;;;;;;165.82;27.25;;;4.10;99.90;;;;;;5047174;28;20033;-51
2023/12/09 06:40:01;;;;;;;169.57;29.05;;;4.10;99.90;;;;;;5022797;28;20652;-52
2023/12/09 06:42:26;;;;;;;111.65;26.27;;;4.10;99.90;;;;;;5045635;28;20412;-50
2023/12/09 06:44:52;;;;;;;105.38;26.90;;;3.70;99.90;;;;;;5045103;28;20032;-52
2023/12/09 06:47:19;;;;;;;101.38;26.95;;;3.60;99.90;;;;;;5045824;28;20419;-50
2023/12/09 06:49:45;;;;;;;67.20;26.92;;;;;;;;;;5045596;28;20029;-54
2023/12/09 06:52:10;;;;;;;162.77;32.58;;;3.30;99.90;;;;;;5045412;28;20664;-54
2023/12/09 06:54:36;;;;;;;130.88;29.08;;;3.50;99.90;;;;;;5015825;28;20037;-51
2023/12/09 06:57:02;;;;;;;184.52;30.63;;;3.70;99.90;;;;;;5021366;28;20033;-51
2023/12/09 06:59:28;;;;;;;83.70;26.13;;;3.80;99.90;;;;;;5020403;28;20092;-54
2023/12/09 07:01:57;;;;;;;120.82;25.30;;;3.90;99.90;;;;;;5041773;28;20062;-50
2023/12/09 07:04:24;;;;;;;109.63;26.55;;;;;;;;;;5040605;28;20060;-52
2023/12/09 07:06:49;;;;;;;161.73;28.88;;;4.10;99.90;;;;;;5040831;28;20553;-49
2023/12/09 07:09:15;;;;;;;88.25;24.85;;;4.10;99.90;;;;;;5036428;28;20044;-52
2023/12/09 07:11:41;;;;;;;192.38;29.75;;;4.20;99.90;;;;;;5013800;28;20048;-51
2023/12/09 07:14:06;;;;;;;132.90;27.13;;;4.30;99.90;;;;;;5051379;28;20041;-51
2023/12/09 07:16:33;;;;;;;68.85;24.50;;;4.40;99.90;;;;;;5051294;28;20037;-51
2023/12/09 07:19:01;;;;;;;107.38;28.23;;;4.20;99.90;;;;;;5049227;28;20600;-53
2023/12/09 07:21:27;;;;;;;127.95;31.13;;;4.30;99.90;;;;;;5031417;28;20068;-55
2023/12/09 07:23:53;;;;;;;150.40;34.75;;;;;;;;;;5036800;28;20025;-52
2023/12/09 07:26:19;;;;;;;87.00;30.13;;;4.10;99.90;;;;;;5031276;28;20071;-50
2023/12/09 07:28:45;;;;;;;125.03;31.50;;;4.00;99.90;;;;;;5031186;28;20424;-54
2023/12/09 07:31:11;;;;;;;124.22;30.17;;;3.90;99.90;;;;;;5032440;28;20021;-55
2023/12/09 07:33:37;;;;;;;83.43;26.10;;;3.80;99.90;;;;;;5051242;28;20051;-51
2023/12/09 07:36:02;;;;;;;109.35;31.58;;;3.80;99.90;;;;;;5051038;28;20025;-55
2023/12/09 07:38:28;;;;;;;79.75;29.15;;;3.90;99.90;;;;;;5012870;28;20529;-50
2023/12/09 07:40:54;;;;;;;157.65;31.30;;;;;;;;;;5039633;28;20033;-50
2023/12/09 07:43:20;;;;;;;72.75;28.95;;;3.90;99.90;;;;;;5033664;28;20498;-52
2023/12/09 07:45:45;;;;;;;92.03;34.40;;;3.90;99.90;;;;;;5031594;28;20056;-55
2023/12/09 07:48:11;;;;;;;112.30;35.08;;;3.90;99.90;;;;;;5031524;28;20448;-54
2023/12/09 07:50:37;;;;;;;89.18;31.67;;;3.90;99.90;;;;;;5031497;28;20286;-51
2023/12/09 07:53:02;;;;;;;99.95;33.15;;;3.70;99.90;;;;;;5012493;28;20088;-51
2023/12/09 07:55:28;;;;;;;93.13;33.40;;;3.50;99.90;;;;;;5032501;28;20060;-53
2023/12/09 07:57:55;;;;;;;84.35;30.60;;;3.50;99.90;;;;;;5034766;28;20041;-51
2023/12/09 08:00:21;;;;;;;99.93;34.00;;;3.50;99.90;;;;;;5034861;28;20396;-53
2023/12/09 08:02:47;;;;;;;90.47;32.80;;;3.50;99.90;;;;;;5034817;28;20091;-52
2023/12/09 08:05:13;;;;;;;83.07;34.38;;;3.60;99.90;;;;;;5035071;28;20401;-51
2023/12/09 08:07:38;;;;;;;74.10;31.25;;;3.70;99.90;;;;;;5015984;28;20124;-50
2023/12/09 08:10:06;;;;;;;75.90;33.63;;;3.60;99.90;;;;;;5035038;28;20037;-55
2023/12/09 08:12:31;;;;;;;73.88;31.88;;;3.50;99.90;;;;;;5015995;28;20140;-50
2023/12/09 08:14:57;;;;;;;67.30;32.72;;;3.60;99.90;;;;;;5034645;28;20133;-51
2023/12/09 08:17:23;;;;;;;91.25;37.70;;;3.70;99.90;;;;;;4999574;28;20038;-50
2023/12/09 08:19:49;;;;;;;93.45;34.78;;;3.80;99.90;;;;;;5034693;28;20117;-52
2023/12/09 08:22:14;;;;;;;86.22;37.10;;;3.80;99.90;;;;;;5015833;28;20497;-53
2023/12/09 08:24:40;;;;;;;98.38;38.47;;;3.70;99.90;;;;;;5034418;28;20033;-54
2023/12/09 08:27:06;;;;;;;80.43;33.72;;;3.80;99.90;;;;;;5034624;28;20037;-54
2023/12/09 08:29:32;;;;;;;87.82;38.10;;;;;;;;;;5034394;28;20087;-52
2023/12/09 08:31:58;;;;;;;147.60;47.15;;;;;;;;;;5033914;28;20061;-52
2023/12/09 08:34:24;;;;;;;122.57;42.72;;;3.50;99.90;;;;;;5034238;28;20519;-51
2023/12/09 08:36:49;;;;;;;70.18;32.00;;;3.50;99.90;;;;;;5034406;28;20025;-54
2023/12/09 08:39:17;;;;;;;93.20;36.83;;;3.40;99.90;;;;;;5034118;28;20480;-52
2023/12/09 08:41:43;;;;;;;120.65;46.70;;;3.50;99.90;;;;;;5034127;28;20039;-54
2023/12/09 08:44:09;;;;;;;101.75;45.55;;;3.70;99.90;;;;;;5015330;28;20116;-51
2023/12/09 08:46:35;;;;;;;96.03;36.97;;;3.70;99.90;;;;;;5034003;28;20481;-53
2023/12/09 08:49:01;;;;;;;88.80;38.03;;;3.80;99.90;;;;;;5033822;28;20034;-51
2023/12/09 08:51:26;;;;;;;108.57;39.50;;;4.00;99.90;;;;;;5034044;28;20037;-50
2023/12/09 08:53:52;;;;;;;72.18;36.63;;;4.30;99.90;;;;;;5033906;28;20029;-54
2023/12/09 08:56:18;;;;;;;125.43;40.00;;;4.00;99.90;;;;;;5033893;28;20037;-52
2023/12/09 08:58:43;;;;;;;101.55;40.05;;;4.40;99.90;;;;;;5034111;28;20033;-54
2023/12/09 09:01:11;;;;;;;123.93;39.05;;;4.30;99.90;;;;;;5033794;28;20041;-54
2023/12/09 09:03:37;;;;;;;926.85;563.60;;;4.50;99.90;;;;;;5033549;28;20108;-54
2023/12/09 09:06:02;;;;;;;152.73;84.03;;;4.40;99.90;;;;;;5033615;28;20132;-54
2023/12/09 09:08:28;;;;;;;111.63;41.78;;;4.10;99.90;;;;;;5013979;28;20580;-53
2023/12/09 09:10:54;;;;;;;132.35;42.53;;;4.30;99.90;;;;;;5033652;28;20665;-51
2023/12/09 09:13:19;;;;;;;233.77;82.30;;;4.50;99.90;;;;;;4998306;28;20604;-51
2023/12/09 09:15:45;;;;;;;230.63;78.03;;;4.50;99.90;;;;;;5014820;28;20038;-51
2023/12/09 09:18:11;;;;;;;116.90;41.78;;;4.20;99.90;;;;;;5033813;28;20065;-51
2023/12/09 09:20:37;;;;;;;104.82;43.50;;;4.40;99.90;;;;;;5033428;28;20146;-52
2023/12/09 09:23:02;;;;;;;577.75;206.38;;;4.40;99.90;;;;;;5033467;28;20079;-52
2023/12/09 09:25:28;;;;;;;102.07;45.25;;;4.00;99.90;;;;;;5033378;28;20496;-53
2023/12/09 09:27:54;;;;;;;79.47;40.35;;;4.00;99.90;;;;;;5033236;28;20152;-52
2023/12/09 09:30:20;;;;;;;115.75;43.33;;;3.90;99.90;;;;;;4998067;28;20041;-53
2023/12/09 09:32:48;;;;;;;104.18;39.70;;;4.10;99.90;;;;;;5032864;28;20053;-53
2023/12/09 09:35:14;;;;;;;97.75;39.78;;;4.30;99.90;;;;;;4997967;28;20132;-52
2023/12/09 09:37:40;;;;;;;590.67;207.50;;;4.60;99.90;;;;;;5033128;28;20493;-52
2023/12/09 09:40:06;;;;;;;112.43;44.85;;;4.50;99.90;;;;;;5033058;28;20112;-55
2023/12/09 09:42:32;;;;;;;408.55;140.43;;;;;;;;;;5032879;28;20485;-53
2023/12/09 09:45:13;;;;;;;373.65;137.52;;;4.80;99.90;;;;;;5042407;28;20029;-54
2023/12/09 09:47:42;;;;;;;137.07;48.92;;;4.90;99.90;;;;;;5032999;28;20480;-52
2023/12/09 09:50:10;;;;;;;127.97;45.75;;;4.80;99.90;;;;;;5032882;28;20060;-50
2023/12/09 09:52:37;;;;;;;125.75;45.28;;;4.90;99.90;;;;;;5032496;28;20481;-51
2023/12/09 09:55:07;;;;;;;93.78;43.95;;;4.90;99.90;;;;;;5032850;28;20094;-55
2023/12/09 09:57:36;;;;;;;99.95;39.60;;;4.80;99.90;;;;;;4997906;28;20516;-54
2023/12/09 10:00:01;;;;;;;104.30;37.83;;;4.80;99.90;;;;;;4997452;28;20045;-50
2023/12/09 10:02:28;;;;;;;187.43;85.05;;;4.80;99.90;;;;;;4997556;28;20494;-53
2023/12/09 10:04:54;;;;;;;82.00;43.05;;;4.70;99.90;;;;;;5032431;28;20489;-51
2023/12/09 10:07:21;;;;;;;111.70;38.72;;;4.90;99.90;;;;;;5032836;28;20079;-54
2023/12/09 10:09:47;;;;;;;89.10;39.97;;;4.70;99.90;;;;;;5032534;28;20061;-54
2023/12/09 10:12:12;;;;;;;89.35;36.78;;;4.70;99.90;;;;;;5032327;28;20515;-50
2023/12/09 10:14:38;;;;;;;83.75;36.90;;;4.50;99.90;;;;;;5032392;28;20112;-54
2023/12/09 10:17:05;;;;;;;111.63;40.80;;;4.70;99.90;;;;;;5031072;28;20041;-54
2023/12/09 10:19:34;;;;;;;100.10;37.38;;;4.90;99.90;;;;;;5032224;28;20088;-52
2023/12/09 10:22:00;;;;;;;102.07;41.03;;;;;;;;;;5032614;28;20374;-52
2023/12/09 10:24:26;;;;;;;78.18;37.75;;;5.00;99.90;;;;;;5032457;28;20511;-51
2023/12/09 10:26:52;;;;;;;124.22;40.42;;;5.00;99.90;;;;;;5032315;28;20116;-50
2023/12/09 10:29:18;;;;;;;94.68;37.63;;;4.90;99.90;;;;;;4997423;28;20436;-53
2023/12/09 10:31:44;;;;;;;104.60;39.28;;;4.90;99.90;;;;;;5032055;28;20497;-50
2023/12/09 10:34:14;;;;;;;79.22;34.20;;;;;;;;;;5032214;28;20037;-50
2023/12/09 10:36:40;;;;;;;83.22;33.35;;;;;;;;;;5032198;28;20552;-50
2023/12/09 10:39:08;;;;;;;104.28;37.58;;;4.40;99.90;;;;;;5032021;28;20041;-54
2023/12/09 10:41:34;;;;;;;84.15;38.38;;;4.20;99.90;;;;;;5032082;28;20080;-54
2023/12/09 10:44:02;;;;;;;108.72;38.53;;;4.30;99.90;;;;;;5032099;28;20034;-54
2023/12/09 10:46:28;;;;;;;89.97;37.13;;;4.20;99.90;;;;;;5032000;28;20051;-53
2023/12/09 10:48:53;;;;;;;99.57;37.13;;;4.10;99.90;;;;;;5031935;28;20116;-52
2023/12/09 10:51:20;;;;;;;81.65;37.03;;;;;;;;;;5032175;28;20037;-53
2023/12/09 10:53:45;;;;;;;91.55;34.45;;;4.00;99.90;;;;;;5032024;28;20045;-55
2023/12/09 10:56:11;;;;;;;78.50;36.90;;;4.20;99.90;;;;;;5031785;28;20060;-53
2023/12/09 10:58:38;;;;;;;110.90;36.42;;;4.40;99.90;;;;;;5031903;28;20029;-51
2023/12/09 11:01:04;;;;;;;125.10;36.08;;;4.40;99.90;;;;;;5031767;28;20040;-53
2023/12/09 11:03:32;;;;;;;91.88;38.20;;;4.50;99.90;;;;;;4996742;28;20045;-51
2023/12/09 11:05:59;;;;;;;105.85;37.85;;;4.40;99.90;;;;;;5031840;28;20091;-54
2023/12/09 11:08:29;;;;;;;89.90;36.28;;;4.70;99.90;;;;;;5032239;28;20036;-53
2023/12/09 11:10:58;;;;;;;83.72;35.45;;;4.70;99.90;;;;;;5032080;28;20036;-55
2023/12/09 11:13:25;;;;;;;82.10;32.70;;;4.80;99.90;;;;;;5031772;28;20044;-51
2023/12/09 11:16:11;;;;;;;97.15;37.30;;;4.80;99.90;;;;;;4980450;28;20068;-53
2023/12/09 11:18:46;;;;;;;78.18;35.67;;;4.80;99.90;;;;;;5031826;28;20038;-55
2023/12/09 11:21:15;;;;;;;86.95;34.50;;;4.80;99.90;;;;;;5031781;28;20025;-53
2023/12/09 11:23:45;;;;;;;82.22;36.75;;;;;;;;;;5014139;28;20036;-52
2023/12/09 11:26:14;;;;;;;124.22;33.05;;;;;;;;;;5031593;28;20033;-54
2023/12/09 11:28:56;;;;;;;121.72;37.75;;;;;;;;;;5030645;28;20017;-51
2023/12/09 11:31:22;;;;;;;80.20;34.00;;;;;;;;;;5033144;28;20107;-51
2023/12/09 11:33:50;;;;;;;93.95;36.22;;;4.80;99.90;;;;;;5034548;28;20311;-50
2023/12/09 11:36:16;;;;;;;87.07;34.63;;;4.70;99.90;;;;;;5034455;28;20040;-50
2023/12/09 11:38:42;;;;;;;91.60;36.80;;;4.80;99.90;;;;;;5034356;28;20033;-54
2023/12/09 11:41:08;;;;;;;114.63;43.60;;;4.80;99.90;;;;;;4999501;28;20069;-51
2023/12/09 11:43:35;;;;;;;94.07;38.00;;;4.90;99.90;;;;;;5034443;28;20095;-51
2023/12/09 11:46:02;;;;;;;114.85;38.15;;;4.90;99.90;;;;;;5032884;28;20374;-53
2023/12/09 11:48:29;;;;;;;121.68;44.30;;;4.70;99.90;;;;;;5034276;28;20034;-53
2023/12/09 11:50:55;;;;;;;87.63;37.50;;;4.80;99.90;;;;;;5034059;28;20112;-51
2023/12/09 11:53:20;;;;;;;96.35;38.55;;;4.70;99.90;;;;;;5034182;28;20121;-52
2023/12/09 11:55:46;;;;;;;80.30;33.20;;;4.70;99.90;;;;;;5045985;28;20515;-50
2023/12/09 11:58:12;;;;;;;92.47;41.45;;;4.80;99.90;;;;;;5054041;28;20033;-52
2023/12/09 12:00:37;;;;;;;107.70;42.35;;;4.40;99.90;;;;;;5054045;28;20021;-50
2023/12/09 12:03:05;;;;;;;116.90;42.88;;;;;;;;;;5053859;28;20432;-53
2023/12/09 12:05:31;;;;;;;101.13;41.50;;;;;;;;;;5053974;28;20033;-51
2023/12/09 12:07:58;;;;;;;95.07;41.95;;;;;;;;;;5053685;28;20143;-50
2023/12/09 12:10:24;;;;;;;89.22;39.90;;;4.40;99.90;;;;;;5053743;28;20498;-51
2023/12/09 12:12:50;;;;;;;90.18;40.42;;;4.40;99.90;;;;;;5053720;28;20132;-53
2023/12/09 12:15:18;;;;;;;84.88;39.40;;;;;;;;;;5018468;28;20052;-51
2023/12/09 12:17:44;;;;;;;95.72;44.25;;;4.10;99.90;;;;;;5053609;28;20037;-53
2023/12/09 12:20:12;;;;;;;110.35;46.75;;;4.00;99.90;;;;;;5034708;28;20040;-52
2023/12/09 12:22:40;;;;;;;99.35;43.42;;;4.10;99.90;;;;;;5054050;28;20431;-53
2023/12/09 12:25:08;;;;;;;99.13;42.45;;;4.00;99.90;;;;;;5053502;28;20033;-54
2023/12/09 12:27:35;;;;;;;93.20;44.53;;;4.20;99.90;;;;;;5018126;28;20033;-51
2023/12/09 12:30:02;;;;;;;105.75;46.08;;;;;;;;;;5053729;28;20073;-52
2023/12/09 12:32:28;;;;;;;87.05;41.90;;;;;;;;;;5053211;28;20370;-50